Terminal Aerodrome Forecast
Issued by NWS

Home | Current Version | Previous Version | Text Only | Print | Product List | Glossary On
Versions: 1 2 3 4 5 6 7 8 9 10 11 12 13 14 15 16 17 18
000
FTUS45 KSLC 241723
TAFBCE
TAF
KBCE 241723Z 2418/2518 15011KT P6SM VCTS SCT060CB BKN100
     FM250100 16007KT P6SM VCSH SCT060 BKN100
     FM251500 18006KT P6SM SCT060 BKN090=

USA.gov is the U.S. government's official web portal to all federal, state and local government web resources and services.